sensor_id;sensor_type;location;lat;lon;timestamp;P1;durP1;ratioP1;P2;durP2;ratioP2
12367;SDS011;6248;49.812;6.620;2023-03-16T00:00:07;3.97;;;3.20;;
12367;SDS011;6248;49.812;6.620;2023-03-16T00:02:38;3.57;;;2.90;;
12367;SDS011;6248;49.812;6.620;2023-03-16T00:05:05;3.30;;;3.00;;
12367;SDS011;6248;49.812;6.620;2023-03-16T00:07:33;2.90;;;2.70;;
12367;SDS011;6248;49.812;6.620;2023-03-16T00:10:00;4.13;;;2.90;;
12367;SDS011;6248;49.812;6.620;2023-03-16T00:12:29;4.17;;;2.70;;
12367;SDS011;6248;49.812;6.620;2023-03-16T00:14:58;3.10;;;2.80;;
12367;SDS011;6248;49.812;6.620;2023-03-16T00:17:26;2.73;;;2.53;;
12367;SDS011;6248;49.812;6.620;2023-03-16T00:19:53;2.90;;;2.70;;
12367;SDS011;6248;49.812;6.620;2023-03-16T00:22:21;2.97;;;2.20;;
12367;SDS011;6248;49.812;6.620;2023-03-16T00:24:49;2.80;;;2.60;;
12367;SDS011;6248;49.812;6.620;2023-03-16T00:27:16;2.73;;;2.53;;
12367;SDS011;6248;49.812;6.620;2023-03-16T00:29:45;2.47;;;2.27;;
12367;SDS011;6248;49.812;6.620;2023-03-16T00:32:14;2.93;;;2.30;;
12367;SDS011;6248;49.812;6.620;2023-03-16T00:34:42;2.60;;;2.40;;
12367;SDS011;6248;49.812;6.620;2023-03-16T00:37:09;2.97;;;2.57;;
12367;SDS011;6248;49.812;6.620;2023-03-16T00:39:38;2.27;;;2.07;;
12367;SDS011;6248;49.812;6.620;2023-03-16T00:42:06;2.97;;;2.40;;
12367;SDS011;6248;49.812;6.620;2023-03-16T00:44:33;2.47;;;2.27;;
12367;SDS011;6248;49.812;6.620;2023-03-16T00:47:02;2.27;;;2.07;;
12367;SDS011;6248;49.812;6.620;2023-03-16T00:49:29;2.00;;;1.90;;
12367;SDS011;6248;49.812;6.620;2023-03-16T00:51:58;2.33;;;2.20;;
12367;SDS011;6248;49.812;6.620;2023-03-16T00:54:26;2.20;;;2.00;;
12367;SDS011;6248;49.812;6.620;2023-03-16T00:56:53;2.40;;;2.20;;
12367;SDS011;6248;49.812;6.620;2023-03-16T00:59:20;2.67;;;2.47;;
12367;SDS011;6248;49.812;6.620;2023-03-16T01:01:47;3.33;;;2.40;;
12367;SDS011;6248;49.812;6.620;2023-03-16T01:04:15;4.30;;;2.23;;
12367;SDS011;6248;49.812;6.620;2023-03-16T01:06:43;2.07;;;1.97;;
12367;SDS011;6248;49.812;6.620;2023-03-16T01:09:10;2.30;;;2.10;;
12367;SDS011;6248;49.812;6.620;2023-03-16T01:11:38;3.10;;;2.73;;
12367;SDS011;6248;49.812;6.620;2023-03-16T01:14:07;3.10;;;2.50;;
12367;SDS011;6248;49.812;6.620;2023-03-16T01:16:34;2.90;;;2.70;;
12367;SDS011;6248;49.812;6.620;2023-03-16T01:19:02;2.50;;;2.30;;
12367;SDS011;6248;49.812;6.620;2023-03-16T01:21:30;2.50;;;2.30;;
12367;SDS011;6248;49.812;6.620;2023-03-16T01:23:57;2.50;;;2.30;;
12367;SDS011;6248;49.812;6.620;2023-03-16T01:26:24;2.50;;;2.10;;
12367;SDS011;6248;49.812;6.620;2023-03-16T01:28:52;3.23;;;2.30;;
12367;SDS011;6248;49.812;6.620;2023-03-16T01:31:19;2.50;;;2.30;;
12367;SDS011;6248;49.812;6.620;2023-03-16T01:33:46;2.60;;;2.40;;
12367;SDS011;6248;49.812;6.620;2023-03-16T01:36:14;2.57;;;2.37;;
12367;SDS011;6248;49.812;6.620;2023-03-16T01:38:43;2.30;;;2.20;;
12367;SDS011;6248;49.812;6.620;2023-03-16T01:41:10;2.60;;;2.40;;
12367;SDS011;6248;49.812;6.620;2023-03-16T01:43:38;2.43;;;2.23;;
12367;SDS011;6248;49.812;6.620;2023-03-16T01:48:49;2.00;;;1.90;;
12367;SDS011;6248;49.812;6.620;2023-03-16T01:51:18;2.40;;;2.20;;
12367;SDS011;6248;49.812;6.620;2023-03-16T01:53:49;2.80;;;2.33;;
12367;SDS011;6248;49.812;6.620;2023-03-16T01:56:19;2.40;;;2.20;;
12367;SDS011;6248;49.812;6.620;2023-03-16T01:58:48;2.27;;;2.00;;
12367;SDS011;6248;49.812;6.620;2023-03-16T02:01:16;2.53;;;2.23;;
12367;SDS011;6248;49.812;6.620;2023-03-16T02:03:43;2.50;;;2.20;;
12367;SDS011;6248;49.812;6.620;2023-03-16T02:06:11;2.13;;;2.03;;
12367;SDS011;6248;49.812;6.620;2023-03-16T02:08:41;2.70;;;2.40;;
12367;SDS011;6248;49.812;6.620;2023-03-16T02:11:10;3.03;;;2.20;;
12367;SDS011;6248;49.812;6.620;2023-03-16T02:13:42;2.20;;;2.10;;
12367;SDS011;6248;49.812;6.620;2023-03-16T02:16:09;2.60;;;2.40;;
12367;SDS011;6248;49.812;6.620;2023-03-16T02:18:37;2.27;;;2.17;;
12367;SDS011;6248;49.812;6.620;2023-03-16T02:21:06;2.77;;;2.30;;
12367;SDS011;6248;49.812;6.620;2023-03-16T02:23:36;2.47;;;2.20;;
12367;SDS011;6248;49.812;6.620;2023-03-16T02:26:06;2.60;;;2.13;;
12367;SDS011;6248;49.812;6.620;2023-03-16T02:28:40;2.70;;;2.10;;
12367;SDS011;6248;49.812;6.620;2023-03-16T02:31:13;3.60;;;2.37;;
12367;SDS011;6248;49.812;6.620;2023-03-16T02:33:41;2.47;;;2.27;;
12367;SDS011;6248;49.812;6.620;2023-03-16T02:36:11;2.50;;;2.30;;
12367;SDS011;6248;49.812;6.620;2023-03-16T02:38:39;2.93;;;2.43;;
12367;SDS011;6248;49.812;6.620;2023-03-16T02:41:09;2.80;;;2.60;;
12367;SDS011;6248;49.812;6.620;2023-03-16T02:43:37;3.00;;;2.70;;
12367;SDS011;6248;49.812;6.620;2023-03-16T02:46:05;3.73;;;2.70;;
12367;SDS011;6248;49.812;6.620;2023-03-16T02:48:36;3.60;;;2.33;;
12367;SDS011;6248;49.812;6.620;2023-03-16T02:51:06;3.20;;;2.90;;
12367;SDS011;6248;49.812;6.620;2023-03-16T02:53:34;2.77;;;2.57;;
12367;SDS011;6248;49.812;6.620;2023-03-16T02:56:01;3.47;;;2.63;;
12367;SDS011;6248;49.812;6.620;2023-03-16T02:58:28;3.00;;;2.80;;
12367;SDS011;6248;49.812;6.620;2023-03-16T03:00:56;2.90;;;2.70;;
12367;SDS011;6248;49.812;6.620;2023-03-16T03:03:23;3.00;;;2.67;;
12367;SDS011;6248;49.812;6.620;2023-03-16T03:05:51;2.70;;;2.50;;
12367;SDS011;6248;49.812;6.620;2023-03-16T03:08:18;4.67;;;2.77;;
12367;SDS011;6248;49.812;6.620;2023-03-16T03:10:47;4.87;;;2.80;;
12367;SDS011;6248;49.812;6.620;2023-03-16T03:13:14;2.30;;;2.20;;
12367;SDS011;6248;49.812;6.620;2023-03-16T03:15:41;3.60;;;3.00;;
12367;SDS011;6248;49.812;6.620;2023-03-16T03:18:09;3.40;;;2.63;;
12367;SDS011;6248;49.812;6.620;2023-03-16T03:20:36;3.10;;;2.90;;
12367;SDS011;6248;49.812;6.620;2023-03-16T03:23:04;3.10;;;2.60;;
12367;SDS011;6248;49.812;6.620;2023-03-16T03:25:32;3.83;;;2.80;;
12367;SDS011;6248;49.812;6.620;2023-03-16T03:27:59;3.30;;;2.80;;
12367;SDS011;6248;49.812;6.620;2023-03-16T03:30:27;3.60;;;2.60;;
12367;SDS011;6248;49.812;6.620;2023-03-16T03:32:54;3.10;;;2.80;;
12367;SDS011;6248;49.812;6.620;2023-03-16T03:35:21;3.77;;;2.90;;
12367;SDS011;6248;49.812;6.620;2023-03-16T03:37:48;4.20;;;2.60;;
12367;SDS011;6248;49.812;6.620;2023-03-16T03:40:18;3.40;;;2.80;;
12367;SDS011;6248;49.812;6.620;2023-03-16T03:42:45;3.07;;;2.83;;
12367;SDS011;6248;49.812;6.620;2023-03-16T03:45:13;2.70;;;2.50;;
12367;SDS011;6248;49.812;6.620;2023-03-16T03:47:40;3.03;;;2.67;;
12367;SDS011;6248;49.812;6.620;2023-03-16T03:50:08;2.80;;;2.60;;
12367;SDS011;6248;49.812;6.620;2023-03-16T03:52:35;2.87;;;2.67;;
12367;SDS011;6248;49.812;6.620;2023-03-16T03:55:03;2.90;;;2.67;;
12367;SDS011;6248;49.812;6.620;2023-03-16T03:57:32;2.87;;;2.57;;
12367;SDS011;6248;49.812;6.620;2023-03-16T03:59:59;2.80;;;2.60;;
12367;SDS011;6248;49.812;6.620;2023-03-16T04:02:26;3.17;;;2.87;;
12367;SDS011;6248;49.812;6.620;2023-03-16T04:04:53;3.10;;;2.80;;
12367;SDS011;6248;49.812;6.620;2023-03-16T04:07:20;2.90;;;2.60;;
12367;SDS011;6248;49.812;6.620;2023-03-16T04:09:47;2.87;;;2.60;;
12367;SDS011;6248;49.812;6.620;2023-03-16T04:12:14;3.10;;;2.80;;
12367;SDS011;6248;49.812;6.620;2023-03-16T04:14:43;3.27;;;2.97;;
12367;SDS011;6248;49.812;6.620;2023-03-16T04:17:10;3.23;;;2.97;;
12367;SDS011;6248;49.812;6.620;2023-03-16T04:19:37;3.17;;;2.87;;
12367;SDS011;6248;49.812;6.620;2023-03-16T04:22:05;3.97;;;3.33;;
12367;SDS011;6248;49.812;6.620;2023-03-16T04:24:32;3.10;;;2.90;;
12367;SDS011;6248;49.812;6.620;2023-03-16T04:27:00;4.37;;;3.00;;
12367;SDS011;6248;49.812;6.620;2023-03-16T04:29:27;5.27;;;3.17;;
12367;SDS011;6248;49.812;6.620;2023-03-16T04:31:56;3.33;;;3.00;;
12367;SDS011;6248;49.812;6.620;2023-03-16T04:34:23;2.77;;;2.57;;
12367;SDS011;6248;49.812;6.620;2023-03-16T04:36:50;3.93;;;2.80;;
12367;SDS011;6248;49.812;6.620;2023-03-16T04:39:17;3.50;;;3.20;;
12367;SDS011;6248;49.812;6.620;2023-03-16T04:41:44;3.20;;;2.90;;
12367;SDS011;6248;49.812;6.620;2023-03-16T04:44:11;3.80;;;3.07;;
12367;SDS011;6248;49.812;6.620;2023-03-16T04:46:38;3.57;;;3.13;;
12367;SDS011;6248;49.812;6.620;2023-03-16T04:49:07;3.80;;;2.73;;
12367;SDS011;6248;49.812;6.620;2023-03-16T04:51:34;3.43;;;3.13;;
12367;SDS011;6248;49.812;6.620;2023-03-16T04:54:04;2.90;;;2.70;;
12367;SDS011;6248;49.812;6.620;2023-03-16T04:56:31;3.23;;;2.67;;
12367;SDS011;6248;49.812;6.620;2023-03-16T04:58:59;3.00;;;2.70;;
12367;SDS011;6248;49.812;6.620;2023-03-16T05:01:26;3.00;;;2.73;;
12367;SDS011;6248;49.812;6.620;2023-03-16T05:03:53;3.23;;;2.97;;
12367;SDS011;6248;49.812;6.620;2023-03-16T05:06:21;2.90;;;2.70;;
12367;SDS011;6248;49.812;6.620;2023-03-16T05:08:49;3.60;;;2.77;;
12367;SDS011;6248;49.812;6.620;2023-03-16T05:11:16;3.70;;;2.93;;
12367;SDS011;6248;49.812;6.620;2023-03-16T05:13:43;3.33;;;2.97;;
12367;SDS011;6248;49.812;6.620;2023-03-16T05:16:10;3.27;;;2.73;;
12367;SDS011;6248;49.812;6.620;2023-03-16T05:18:37;3.40;;;2.70;;
12367;SDS011;6248;49.812;6.620;2023-03-16T05:21:05;3.07;;;2.53;;
12367;SDS011;6248;49.812;6.620;2023-03-16T05:23:33;4.83;;;2.80;;
12367;SDS011;6248;49.812;6.620;2023-03-16T05:26:00;3.13;;;2.70;;
12367;SDS011;6248;49.812;6.620;2023-03-16T05:28:27;2.80;;;2.60;;
12367;SDS011;6248;49.812;6.620;2023-03-16T05:30:55;3.00;;;2.70;;
12367;SDS011;6248;49.812;6.620;2023-03-16T05:33:22;3.00;;;2.70;;
12367;SDS011;6248;49.812;6.620;2023-03-16T05:35:49;3.30;;;2.50;;
12367;SDS011;6248;49.812;6.620;2023-03-16T05:38:17;3.00;;;2.80;;
12367;SDS011;6248;49.812;6.620;2023-03-16T05:40:45;3.53;;;2.50;;
12367;SDS011;6248;49.812;6.620;2023-03-16T05:43:16;2.60;;;2.40;;
12367;SDS011;6248;49.812;6.620;2023-03-16T05:45:44;2.67;;;2.43;;
12367;SDS011;6248;49.812;6.620;2023-03-16T05:48:11;3.47;;;2.70;;
12367;SDS011;6248;49.812;6.620;2023-03-16T05:50:38;3.17;;;2.53;;
12367;SDS011;6248;49.812;6.620;2023-03-16T05:53:06;3.03;;;2.40;;
12367;SDS011;6248;49.812;6.620;2023-03-16T05:55:33;2.97;;;2.67;;
12367;SDS011;6248;49.812;6.620;2023-03-16T05:58:01;4.23;;;2.80;;
12367;SDS011;6248;49.812;6.620;2023-03-16T06:00:29;2.90;;;2.70;;
12367;SDS011;6248;49.812;6.620;2023-03-16T06:02:56;2.87;;;2.43;;
12367;SDS011;6248;49.812;6.620;2023-03-16T06:05:23;3.07;;;2.67;;
12367;SDS011;6248;49.812;6.620;2023-03-16T06:07:52;3.07;;;2.60;;
12367;SDS011;6248;49.812;6.620;2023-03-16T06:10:19;2.50;;;2.20;;
12367;SDS011;6248;49.812;6.620;2023-03-16T06:12:46;4.20;;;2.70;;
12367;SDS011;6248;49.812;6.620;2023-03-16T06:15:15;4.37;;;2.60;;
12367;SDS011;6248;49.812;6.620;2023-03-16T06:17:42;3.53;;;2.57;;
12367;SDS011;6248;49.812;6.620;2023-03-16T06:20:10;2.70;;;2.50;;
12367;SDS011;6248;49.812;6.620;2023-03-16T06:22:37;3.13;;;2.60;;
12367;SDS011;6248;49.812;6.620;2023-03-16T06:25:05;3.20;;;2.83;;
12367;SDS011;6248;49.812;6.620;2023-03-16T06:27:33;2.87;;;2.60;;
12367;SDS011;6248;49.812;6.620;2023-03-16T06:30:01;2.77;;;2.37;;
12367;SDS011;6248;49.812;6.620;2023-03-16T06:32:29;3.13;;;2.70;;
12367;SDS011;6248;49.812;6.620;2023-03-16T06:34:56;4.40;;;2.70;;
12367;SDS011;6248;49.812;6.620;2023-03-16T06:37:26;2.83;;;2.30;;
12367;SDS011;6248;49.812;6.620;2023-03-16T06:39:53;4.63;;;3.00;;
12367;SDS011;6248;49.812;6.620;2023-03-16T06:42:20;3.53;;;2.80;;
12367;SDS011;6248;49.812;6.620;2023-03-16T06:44:47;3.40;;;3.13;;
12367;SDS011;6248;49.812;6.620;2023-03-16T06:47:15;3.27;;;2.70;;
12367;SDS011;6248;49.812;6.620;2023-03-16T06:49:43;3.20;;;2.90;;
12367;SDS011;6248;49.812;6.620;2023-03-16T06:52:11;4.07;;;3.30;;
12367;SDS011;6248;49.812;6.620;2023-03-16T06:54:39;5.80;;;3.70;;
12367;SDS011;6248;49.812;6.620;2023-03-16T06:57:06;5.87;;;5.13;;
12367;SDS011;6248;49.812;6.620;2023-03-16T06:59:33;8.63;;;6.93;;
12367;SDS011;6248;49.812;6.620;2023-03-16T07:02:00;8.07;;;6.07;;
12367;SDS011;6248;49.812;6.620;2023-03-16T07:04:27;13.03;;;7.70;;
12367;SDS011;6248;49.812;6.620;2023-03-16T07:06:56;8.17;;;6.27;;
12367;SDS011;6248;49.812;6.620;2023-03-16T07:09:23;6.93;;;5.37;;
12367;SDS011;6248;49.812;6.620;2023-03-16T07:11:50;5.20;;;3.57;;
12367;SDS011;6248;49.812;6.620;2023-03-16T07:14:17;4.73;;;3.67;;
12367;SDS011;6248;49.812;6.620;2023-03-16T07:16:47;5.40;;;4.00;;
12367;SDS011;6248;49.812;6.620;2023-03-16T07:19:14;5.90;;;4.63;;
12367;SDS011;6248;49.812;6.620;2023-03-16T07:21:41;7.53;;;5.73;;
12367;SDS011;6248;49.812;6.620;2023-03-16T07:24:10;4.17;;;3.70;;
12367;SDS011;6248;49.812;6.620;2023-03-16T07:26:37;5.80;;;4.50;;
12367;SDS011;6248;49.812;6.620;2023-03-16T07:29:04;6.03;;;4.80;;
12367;SDS011;6248;49.812;6.620;2023-03-16T07:31:31;6.10;;;4.20;;
12367;SDS011;6248;49.812;6.620;2023-03-16T07:33:59;3.87;;;3.40;;
12367;SDS011;6248;49.812;6.620;2023-03-16T07:36:26;3.17;;;2.50;;
12367;SDS011;6248;49.812;6.620;2023-03-16T07:38:53;2.70;;;2.50;;
12367;SDS011;6248;49.812;6.620;2023-03-16T07:41:22;2.97;;;2.77;;
12367;SDS011;6248;49.812;6.620;2023-03-16T07:43:49;3.73;;;3.20;;
12367;SDS011;6248;49.812;6.620;2023-03-16T07:46:17;3.53;;;2.90;;
12367;SDS011;6248;49.812;6.620;2023-03-16T07:48:45;3.80;;;3.03;;
12367;SDS011;6248;49.812;6.620;2023-03-16T07:51:12;2.97;;;2.57;;
12367;SDS011;6248;49.812;6.620;2023-03-16T07:53:39;5.33;;;2.40;;
12367;SDS011;6248;49.812;6.620;2023-03-16T07:56:07;2.40;;;2.20;;
12367;SDS011;6248;49.812;6.620;2023-03-16T07:58:37;2.60;;;2.40;;
12367;SDS011;6248;49.812;6.620;2023-03-16T08:01:04;2.83;;;2.30;;
12367;SDS011;6248;49.812;6.620;2023-03-16T08:03:31;2.40;;;2.20;;
12367;SDS011;6248;49.812;6.620;2023-03-16T08:05:59;2.40;;;2.20;;
12367;SDS011;6248;49.812;6.620;2023-03-16T08:08:26;3.33;;;2.10;;
12367;SDS011;6248;49.812;6.620;2023-03-16T08:10:53;2.60;;;2.40;;
12367;SDS011;6248;49.812;6.620;2023-03-16T08:13:21;2.00;;;1.90;;
12367;SDS011;6248;49.812;6.620;2023-03-16T08:15:50;2.30;;;2.10;;
12367;SDS011;6248;49.812;6.620;2023-03-16T08:18:22;2.57;;;2.10;;
12367;SDS011;6248;49.812;6.620;2023-03-16T08:20:50;2.47;;;2.10;;
12367;SDS011;6248;49.812;6.620;2023-03-16T08:23:17;2.27;;;2.07;;
12367;SDS011;6248;49.812;6.620;2023-03-16T08:25:45;2.97;;;2.10;;
12367;SDS011;6248;49.812;6.620;2023-03-16T08:28:13;2.30;;;2.10;;
12367;SDS011;6248;49.812;6.620;2023-03-16T08:30:44;2.40;;;2.17;;
12367;SDS011;6248;49.812;6.620;2023-03-16T08:33:13;2.10;;;1.90;;
12367;SDS011;6248;49.812;6.620;2023-03-16T08:35:43;2.70;;;1.93;;
12367;SDS011;6248;49.812;6.620;2023-03-16T08:38:11;2.37;;;1.90;;
12367;SDS011;6248;49.812;6.620;2023-03-16T08:40:40;3.67;;;2.20;;
12367;SDS011;6248;49.812;6.620;2023-03-16T08:43:11;2.63;;;2.17;;
12367;SDS011;6248;49.812;6.620;2023-03-16T08:45:39;2.53;;;2.30;;
12367;SDS011;6248;49.812;6.620;2023-03-16T08:48:10;3.67;;;1.93;;
12367;SDS011;6248;49.812;6.620;2023-03-16T08:50:41;2.20;;;2.00;;
12367;SDS011;6248;49.812;6.620;2023-03-16T08:53:12;3.73;;;1.83;;
12367;SDS011;6248;49.812;6.620;2023-03-16T08:55:45;3.80;;;1.80;;
12367;SDS011;6248;49.812;6.620;2023-03-16T08:58:16;2.67;;;1.83;;
12367;SDS011;6248;49.812;6.620;2023-03-16T09:00:58;4.00;;;1.87;;
12367;SDS011;6248;49.812;6.620;2023-03-16T09:03:26;2.53;;;1.70;;
12367;SDS011;6248;49.812;6.620;2023-03-16T09:06:02;2.87;;;1.90;;
12367;SDS011;6248;49.812;6.620;2023-03-16T09:08:34;2.30;;;1.53;;
12367;SDS011;6248;49.812;6.620;2023-03-16T09:11:04;1.80;;;1.70;;
12367;SDS011;6248;49.812;6.620;2023-03-16T09:13:32;1.97;;;1.87;;
12367;SDS011;6248;49.812;6.620;2023-03-16T09:15:59;3.83;;;1.70;;
12367;SDS011;6248;49.812;6.620;2023-03-16T09:18:27;2.00;;;1.80;;
12367;SDS011;6248;49.812;6.620;2023-03-16T09:20:56;2.43;;;1.50;;
12367;SDS011;6248;49.812;6.620;2023-03-16T09:23:25;2.20;;;1.47;;
12367;SDS011;6248;49.812;6.620;2023-03-16T09:25:56;2.50;;;1.57;;
12367;SDS011;6248;49.812;6.620;2023-03-16T09:28:23;2.60;;;1.50;;
12367;SDS011;6248;49.812;6.620;2023-03-16T09:30:51;3.60;;;1.70;;
12367;SDS011;6248;49.812;6.620;2023-03-16T09:33:19;2.20;;;1.50;;
12367;SDS011;6248;49.812;6.620;2023-03-16T09:35:46;2.37;;;1.90;;
12367;SDS011;6248;49.812;6.620;2023-03-16T09:38:14;1.40;;;1.30;;
12367;SDS011;6248;49.812;6.620;2023-03-16T09:40:44;2.13;;;1.50;;
12367;SDS011;6248;49.812;6.620;2023-03-16T09:43:19;1.53;;;1.40;;
12367;SDS011;6248;49.812;6.620;2023-03-16T09:45:51;1.73;;;1.63;;
12367;SDS011;6248;49.812;6.620;2023-03-16T09:48:22;2.00;;;1.57;;
12367;SDS011;6248;49.812;6.620;2023-03-16T09:50:50;3.13;;;1.57;;
12367;SDS011;6248;49.812;6.620;2023-03-16T09:53:21;1.43;;;1.33;;
12367;SDS011;6248;49.812;6.620;2023-03-16T09:55:52;1.50;;;1.37;;
12367;SDS011;6248;49.812;6.620;2023-03-16T09:58:20;1.93;;;1.50;;
12367;SDS011;6248;49.812;6.620;2023-03-16T10:00:49;3.00;;;1.53;;
12367;SDS011;6248;49.812;6.620;2023-03-16T10:03:24;4.13;;;1.57;;
12367;SDS011;6248;49.812;6.620;2023-03-16T10:05:54;1.60;;;1.40;;
12367;SDS011;6248;49.812;6.620;2023-03-16T10:08:23;2.87;;;1.20;;
12367;SDS011;6248;49.812;6.620;2023-03-16T10:13:40;2.27;;;1.40;;
12367;SDS011;6248;49.812;6.620;2023-03-16T10:16:10;3.37;;;1.40;;
12367;SDS011;6248;49.812;6.620;2023-03-16T10:18:40;3.00;;;1.40;;
12367;SDS011;6248;49.812;6.620;2023-03-16T10:21:12;1.67;;;1.40;;
12367;SDS011;6248;49.812;6.620;2023-03-16T10:23:41;1.20;;;1.10;;
12367;SDS011;6248;49.812;6.620;2023-03-16T10:26:11;3.87;;;1.50;;
12367;SDS011;6248;49.812;6.620;2023-03-16T10:28:40;2.13;;;1.70;;
12367;SDS011;6248;49.812;6.620;2023-03-16T10:31:09;1.67;;;1.50;;
12367;SDS011;6248;49.812;6.620;2023-03-16T10:33:38;3.20;;;1.57;;
12367;SDS011;6248;49.812;6.620;2023-03-16T10:36:11;3.33;;;1.60;;
12367;SDS011;6248;49.812;6.620;2023-03-16T10:38:40;1.30;;;1.20;;
12367;SDS011;6248;49.812;6.620;2023-03-16T10:41:21;2.33;;;1.20;;
12367;SDS011;6248;49.812;6.620;2023-03-16T10:43:51;2.90;;;1.47;;
12367;SDS011;6248;49.812;6.620;2023-03-16T10:46:19;1.93;;;1.43;;
12367;SDS011;6248;49.812;6.620;2023-03-16T10:48:51;1.17;;;1.10;;
12367;SDS011;6248;49.812;6.620;2023-03-16T10:51:23;1.13;;;1.00;;
12367;SDS011;6248;49.812;6.620;2023-03-16T10:53:52;2.57;;;1.30;;
12367;SDS011;6248;49.812;6.620;2023-03-16T10:56:22;2.80;;;1.40;;
12367;SDS011;6248;49.812;6.620;2023-03-16T10:58:51;1.33;;;1.07;;
12367;SDS011;6248;49.812;6.620;2023-03-16T11:01:20;2.73;;;1.20;;
12367;SDS011;6248;49.812;6.620;2023-03-16T11:03:48;1.50;;;1.40;;
12367;SDS011;6248;49.812;6.620;2023-03-16T11:06:18;2.10;;;1.20;;
12367;SDS011;6248;49.812;6.620;2023-03-16T11:08:46;1.53;;;1.30;;
12367;SDS011;6248;49.812;6.620;2023-03-16T11:11:16;1.87;;;1.10;;
12367;SDS011;6248;49.812;6.620;2023-03-16T11:13:44;1.73;;;1.20;;
12367;SDS011;6248;49.812;6.620;2023-03-16T11:16:24;10.33;;;2.40;;
12367;SDS011;6248;49.812;6.620;2023-03-16T11:18:53;2.07;;;1.10;;
12367;SDS011;6248;49.812;6.620;2023-03-16T11:21:23;2.17;;;0.90;;
12367;SDS011;6248;49.812;6.620;2023-03-16T11:23:54;1.13;;;1.00;;
12367;SDS011;6248;49.812;6.620;2023-03-16T11:26:24;2.50;;;1.30;;
12367;SDS011;6248;49.812;6.620;2023-03-16T11:28:53;1.70;;;1.10;;
12367;SDS011;6248;49.812;6.620;2023-03-16T11:31:32;2.70;;;1.30;;
12367;SDS011;6248;49.812;6.620;2023-03-16T11:34:08;1.33;;;1.02;;
12367;SDS011;6248;49.812;6.620;2023-03-16T11:36:41;1.40;;;0.90;;
12367;SDS011;6248;49.812;6.620;2023-03-16T11:39:12;0.87;;;0.87;;
12367;SDS011;6248;49.812;6.620;2023-03-16T11:41:45;1.63;;;1.10;;
12367;SDS011;6248;49.812;6.620;2023-03-16T11:44:15;1.77;;;1.10;;
12367;SDS011;6248;49.812;6.620;2023-03-16T11:46:48;1.00;;;0.90;;
12367;SDS011;6248;49.812;6.620;2023-03-16T11:49:30;1.63;;;1.00;;
12367;SDS011;6248;49.812;6.620;2023-03-16T11:52:01;0.98;;;0.65;;
12367;SDS011;6248;49.812;6.620;2023-03-16T11:54:42;3.80;;;1.00;;
12367;SDS011;6248;49.812;6.620;2023-03-16T11:57:16;1.85;;;0.98;;
12367;SDS011;6248;49.812;6.620;2023-03-16T11:59:53;1.33;;;0.80;;
12367;SDS011;6248;49.812;6.620;2023-03-16T12:02:30;2.38;;;0.90;;
12367;SDS011;6248;49.812;6.620;2023-03-16T12:05:19;0.90;;;0.90;;
12367;SDS011;6248;49.812;6.620;2023-03-16T12:07:50;1.33;;;0.90;;
12367;SDS011;6248;49.812;6.620;2023-03-16T12:10:22;0.85;;;0.85;;
12367;SDS011;6248;49.812;6.620;2023-03-16T12:12:54;1.33;;;0.90;;
12367;SDS011;6248;49.812;6.620;2023-03-16T12:15:28;1.80;;;0.90;;
12367;SDS011;6248;49.812;6.620;2023-03-16T12:18:04;1.27;;;0.90;;
12367;SDS011;6248;49.812;6.620;2023-03-16T12:20:36;1.20;;;1.00;;
12367;SDS011;6248;49.812;6.620;2023-03-16T12:23:09;1.45;;;0.90;;
12367;SDS011;6248;49.812;6.620;2023-03-16T12:25:38;1.27;;;0.88;;
12367;SDS011;6248;49.812;6.620;2023-03-16T12:28:09;1.77;;;0.90;;
12367;SDS011;6248;49.812;6.620;2023-03-16T12:30:42;2.70;;;1.00;;
12367;SDS011;6248;49.812;6.620;2023-03-16T12:33:19;2.47;;;1.17;;
12367;SDS011;6248;49.812;6.620;2023-03-16T12:35:50;1.27;;;0.88;;
12367;SDS011;6248;49.812;6.620;2023-03-16T12:38:24;2.08;;;0.80;;
12367;SDS011;6248;49.812;6.620;2023-03-16T12:40:58;0.98;;;0.90;;
12367;SDS011;6248;49.812;6.620;2023-03-16T12:43:35;0.77;;;0.77;;
12367;SDS011;6248;49.812;6.620;2023-03-16T12:46:05;1.00;;;0.90;;
12367;SDS011;6248;49.812;6.620;2023-03-16T12:48:36;2.05;;;1.00;;
12367;SDS011;6248;49.812;6.620;2023-03-16T12:51:04;1.48;;;0.90;;
12367;SDS011;6248;49.812;6.620;2023-03-16T12:53:39;1.77;;;1.00;;
12367;SDS011;6248;49.812;6.620;2023-03-16T12:56:08;1.60;;;1.00;;
12367;SDS011;6248;49.812;6.620;2023-03-16T12:58:38;0.80;;;0.80;;
12367;SDS011;6248;49.812;6.620;2023-03-16T13:01:07;1.15;;;0.65;;
12367;SDS011;6248;49.812;6.620;2023-03-16T13:03:38;1.85;;;1.13;;
12367;SDS011;6248;49.812;6.620;2023-03-16T13:06:07;2.53;;;0.82;;
12367;SDS011;6248;49.812;6.620;2023-03-16T13:08:42;1.90;;;1.00;;
12367;SDS011;6248;49.812;6.620;2023-03-16T13:11:12;1.13;;;0.70;;
12367;SDS011;6248;49.812;6.620;2023-03-16T13:13:46;1.95;;;0.77;;
12367;SDS011;6248;49.812;6.620;2023-03-16T13:16:22;1.13;;;0.70;;
12367;SDS011;6248;49.812;6.620;2023-03-16T13:18:51;2.08;;;0.98;;
12367;SDS011;6248;49.812;6.620;2023-03-16T13:21:19;2.17;;;0.70;;
12367;SDS011;6248;49.812;6.620;2023-03-16T13:23:55;0.70;;;0.70;;
12367;SDS011;6248;49.812;6.620;2023-03-16T13:29:19;1.10;;;0.85;;
12367;SDS011;6248;49.812;6.620;2023-03-16T13:31:47;0.93;;;0.70;;
12367;SDS011;6248;49.812;6.620;2023-03-16T13:34:20;1.45;;;1.02;;
12367;SDS011;6248;49.812;6.620;2023-03-16T13:36:47;1.77;;;1.05;;
12367;SDS011;6248;49.812;6.620;2023-03-16T13:39:17;1.25;;;0.80;;
12367;SDS011;6248;49.812;6.620;2023-03-16T13:41:53;0.93;;;0.80;;
12367;SDS011;6248;49.812;6.620;2023-03-16T13:44:21;2.20;;;0.90;;
12367;SDS011;6248;49.812;6.620;2023-03-16T13:46:49;1.35;;;0.90;;
12367;SDS011;6248;49.812;6.620;2023-03-16T13:49:16;0.80;;;0.80;;
12367;SDS011;6248;49.812;6.620;2023-03-16T13:51:46;0.95;;;0.80;;
12367;SDS011;6248;49.812;6.620;2023-03-16T13:54:18;1.27;;;0.70;;
12367;SDS011;6248;49.812;6.620;2023-03-16T13:56:47;1.00;;;1.00;;
12367;SDS011;6248;49.812;6.620;2023-03-16T13:59:15;1.50;;;1.00;;
12367;SDS011;6248;49.812;6.620;2023-03-16T14:01:43;0.90;;;0.90;;
12367;SDS011;6248;49.812;6.620;2023-03-16T14:04:12;1.30;;;1.00;;
12367;SDS011;6248;49.812;6.620;2023-03-16T14:06:51;0.85;;;0.82;;
12367;SDS011;6248;49.812;6.620;2023-03-16T14:09:20;1.27;;;1.00;;
12367;SDS011;6248;49.812;6.620;2023-03-16T14:11:47;1.40;;;1.00;;
12367;SDS011;6248;49.812;6.620;2023-03-16T14:14:16;2.55;;;0.90;;
12367;SDS011;6248;49.812;6.620;2023-03-16T14:16:44;1.00;;;0.90;;
12367;SDS011;6248;49.812;6.620;2023-03-16T14:19:15;0.93;;;0.80;;
12367;SDS011;6248;49.812;6.620;2023-03-16T14:21:43;0.88;;;0.82;;
12367;SDS011;6248;49.812;6.620;2023-03-16T14:24:17;0.80;;;0.80;;
12367;SDS011;6248;49.812;6.620;2023-03-16T14:26:45;1.27;;;0.90;;
12367;SDS011;6248;49.812;6.620;2023-03-16T14:29:14;1.45;;;0.80;;
12367;SDS011;6248;49.812;6.620;2023-03-16T14:31:44;0.98;;;0.75;;
12367;SDS011;6248;49.812;6.620;2023-03-16T14:34:21;0.98;;;0.80;;
12367;SDS011;6248;49.812;6.620;2023-03-16T14:36:52;1.00;;;0.90;;
12367;SDS011;6248;49.812;6.620;2023-03-16T14:39:31;1.90;;;1.25;;
12367;SDS011;6248;49.812;6.620;2023-03-16T14:42:00;3.70;;;0.90;;
12367;SDS011;6248;49.812;6.620;2023-03-16T14:44:28;1.50;;;1.00;;
12367;SDS011;6248;49.812;6.620;2023-03-16T14:46:56;1.27;;;0.88;;
12367;SDS011;6248;49.812;6.620;2023-03-16T14:49:25;1.48;;;0.90;;
12367;SDS011;6248;49.812;6.620;2023-03-16T14:51:53;0.65;;;0.65;;
12367;SDS011;6248;49.812;6.620;2023-03-16T14:54:21;0.75;;;0.75;;
12367;SDS011;6248;49.812;6.620;2023-03-16T14:56:51;0.90;;;0.90;;
12367;SDS011;6248;49.812;6.620;2023-03-16T14:59:18;2.20;;;1.02;;
12367;SDS011;6248;49.812;6.620;2023-03-16T15:01:46;2.35;;;0.95;;
12367;SDS011;6248;49.812;6.620;2023-03-16T15:04:15;1.02;;;0.90;;
12367;SDS011;6248;49.812;6.620;2023-03-16T15:06:43;1.10;;;0.90;;
12367;SDS011;6248;49.812;6.620;2023-03-16T15:09:16;1.55;;;0.80;;
12367;SDS011;6248;49.812;6.620;2023-03-16T15:11:47;1.60;;;1.00;;
12367;SDS011;6248;49.812;6.620;2023-03-16T15:14:20;1.02;;;0.90;;
12367;SDS011;6248;49.812;6.620;2023-03-16T15:17:01;0.82;;;0.82;;
12367;SDS011;6248;49.812;6.620;2023-03-16T15:19:28;1.23;;;0.80;;